Weston, Ohio
Current Conditions -  °F | °C
As of 7:52 PM on Tuesday 21 Oct 2014 (Local Time) from KTOL Reporting Station
Overcast Overcast  
Wind Chill: 40°   Ceiling: 2300
Heat Index: 45°   Visibility: 10mi
Dew Point: 37°   Wind: 9mph
Humidity: 74%   Direction: 350°N
Pressure: 30.16"   Gusts: NA
Location:  41.34°N, 83.8°W
Report Text: KTOL 212352Z 35008KT 10SM OVC023 07/03 A3016 RMK AO2 SLP217 T00720028 10089 20072 53018
Loading
Personal Weather Stations






























Interactive Weather Map
Tropical Storm Tracking
New forecast layout! Learn more

10-Day Weather Forecast

Advertisements
Track Severe Weather on mobile